createdAt,value
2018-09-19T00:01:52.340Z,18.90
2018-09-19T00:04:20.674Z,18.90
2018-09-19T00:06:48.758Z,19.00
2018-09-19T00:09:16.832Z,19.00
2018-09-19T00:11:44.929Z,19.00
2018-09-19T00:14:13.035Z,19.00
2018-09-19T00:16:41.123Z,19.00
2018-09-19T00:19:09.277Z,18.90
2018-09-19T00:21:37.366Z,18.80
2018-09-19T00:24:05.470Z,18.80
2018-09-19T00:26:33.564Z,18.80
2018-09-19T00:29:01.711Z,18.70
2018-09-19T00:31:29.828Z,18.80
2018-09-19T00:33:57.911Z,18.90
2018-09-19T00:36:26.015Z,18.90
2018-09-19T00:38:54.344Z,18.90
2018-09-19T00:41:22.481Z,18.90
2018-09-19T00:43:50.528Z,18.90
2018-09-19T00:46:18.689Z,18.90
2018-09-19T00:48:46.797Z,19.00
2018-09-19T00:51:14.886Z,18.90
2018-09-19T00:53:43.014Z,18.90
2018-09-19T00:56:11.105Z,18.90
2018-09-19T00:58:39.210Z,18.90
2018-09-19T01:01:07.295Z,18.80
2018-09-19T01:03:35.414Z,18.70
2018-09-19T01:06:03.516Z,18.70
2018-09-19T01:08:31.609Z,18.70
2018-09-19T01:10:59.710Z,18.70
2018-09-19T01:13:27.786Z,18.60
2018-09-19T01:15:55.890Z,18.60
2018-09-19T01:18:23.979Z,18.60
2018-09-19T01:20:52.078Z,18.50
2018-09-19T01:23:20.163Z,18.50
2018-09-19T01:25:48.263Z,18.50
2018-09-19T01:28:16.358Z,18.40
2018-09-19T01:30:44.451Z,18.40
2018-09-19T01:33:12.524Z,18.30
2018-09-19T01:35:40.616Z,18.30
2018-09-19T01:38:08.701Z,18.20
2018-09-19T01:40:36.838Z,18.30
2018-09-19T01:43:04.921Z,18.30
2018-09-19T01:45:33.022Z,18.30
2018-09-19T01:48:01.121Z,18.20
2018-09-19T01:50:29.220Z,18.10
2018-09-19T01:52:57.520Z,18.00
2018-09-19T01:55:25.634Z,18.00
2018-09-19T01:57:53.718Z,17.90
2018-09-19T02:00:21.844Z,17.80
2018-09-19T02:02:49.931Z,17.70
2018-09-19T02:05:18.042Z,17.70
2018-09-19T02:07:46.149Z,17.60
2018-09-19T02:10:14.248Z,17.70
2018-09-19T02:12:42.481Z,17.60
2018-09-19T02:15:10.569Z,17.60
2018-09-19T02:17:38.661Z,17.60
2018-09-19T02:20:06.773Z,17.40
2018-09-19T02:22:34.870Z,17.30
2018-09-19T02:25:02.971Z,17.20
2018-09-19T02:27:31.042Z,17.30
2018-09-19T02:29:59.154Z,17.30
2018-09-19T02:32:27.270Z,17.20
2018-09-19T02:34:55.360Z,17.20
2018-09-19T02:37:23.465Z,17.10
2018-09-19T02:39:51.565Z,17.20
2018-09-19T02:42:19.775Z,17.20
2018-09-19T02:44:47.859Z,17.10
2018-09-19T02:47:15.971Z,17.20
2018-09-19T02:49:44.073Z,17.20
2018-09-19T02:52:12.172Z,17.20
2018-09-19T02:54:40.258Z,17.10
2018-09-19T02:57:08.346Z,17.10
2018-09-19T02:59:36.448Z,17.10
2018-09-19T03:02:04.549Z,17.10
2018-09-19T03:04:32.634Z,17.00
2018-09-19T03:07:00.737Z,17.00
2018-09-19T03:09:28.812Z,17.00
2018-09-19T03:12:03.783Z,17.00
2018-09-19T03:14:31.894Z,17.10
2018-09-19T03:17:00.010Z,17.10
2018-09-19T03:19:28.086Z,16.90
2018-09-19T03:21:56.176Z,16.90
2018-09-19T03:24:24.260Z,16.90
2018-09-19T03:26:52.346Z,16.90
2018-09-19T03:29:20.447Z,16.80
2018-09-19T03:31:48.570Z,16.80
2018-09-19T03:34:16.791Z,16.80
2018-09-19T03:36:44.883Z,16.80
2018-09-19T03:39:12.985Z,16.70
2018-09-19T03:41:41.089Z,16.70
2018-09-19T03:44:09.337Z,16.60
2018-09-19T03:46:38.224Z,16.60
2018-09-19T03:49:06.907Z,16.50
2018-09-19T03:51:35.013Z,16.50
2018-09-19T03:54:03.115Z,16.50
2018-09-19T03:56:31.211Z,16.50
2018-09-19T03:58:59.288Z,16.40
2018-09-19T04:01:27.390Z,16.40
2018-09-19T04:03:55.479Z,16.40
2018-09-19T04:06:23.606Z,16.40
2018-09-19T04:08:51.718Z,16.50
2018-09-19T04:11:19.837Z,16.50
2018-09-19T04:13:47.992Z,16.60
2018-09-19T04:16:16.063Z,16.60
2018-09-19T04:18:44.179Z,16.60
2018-09-19T04:21:12.298Z,16.60
2018-09-19T04:23:40.392Z,16.50
2018-09-19T04:26:08.510Z,16.50
2018-09-19T04:28:36.625Z,16.50
2018-09-19T04:31:04.775Z,16.50
2018-09-19T04:33:32.865Z,16.50
2018-09-19T04:36:00.973Z,16.40
2018-09-19T04:38:29.085Z,16.30
2018-09-19T04:40:57.205Z,16.20
2018-09-19T04:43:26.199Z,16.20
2018-09-19T04:45:54.995Z,16.20
2018-09-19T04:48:24.539Z,16.20
2018-09-19T04:50:52.652Z,16.30
2018-09-19T04:53:20.775Z,16.30
2018-09-19T04:55:48.962Z,16.30
2018-09-19T04:58:17.345Z,16.30
2018-09-19T05:00:46.407Z,16.20
2018-09-19T05:03:14.813Z,16.10
2018-09-19T05:05:42.946Z,16.20
2018-09-19T05:08:11.051Z,16.10
2018-09-19T05:10:39.149Z,16.10
2018-09-19T05:13:07.568Z,16.10
2018-09-19T05:15:37.534Z,16.10
2018-09-19T05:18:06.377Z,16.10
2018-09-19T05:20:34.501Z,16.10
2018-09-19T05:23:02.609Z,16.10
2018-09-19T05:25:30.736Z,16.10
2018-09-19T05:27:58.842Z,16.20
2018-09-19T05:30:26.966Z,16.30
2018-09-19T05:32:55.059Z,16.30
2018-09-19T05:35:23.160Z,16.30
2018-09-19T05:37:51.413Z,16.30
2018-09-19T05:40:19.521Z,16.40
2018-09-19T05:42:47.646Z,16.30
2018-09-19T05:45:15.736Z,16.40
2018-09-19T05:47:43.878Z,16.40
2018-09-19T05:50:11.976Z,16.50
2018-09-19T05:52:40.091Z,16.50
2018-09-19T05:55:08.212Z,16.50
2018-09-19T05:57:36.342Z,16.40
2018-09-19T06:00:04.810Z,16.40
2018-09-19T06:02:32.915Z,16.40
2018-09-19T06:05:01.134Z,16.40
2018-09-19T06:07:29.149Z,16.50
2018-09-19T06:09:57.236Z,16.50
2018-09-19T06:12:25.365Z,16.60
2018-09-19T06:14:53.465Z,16.70
2018-09-19T06:17:21.863Z,16.80
2018-09-19T06:19:50.469Z,16.90
2018-09-19T06:22:18.579Z,16.80
2018-09-19T06:24:46.686Z,16.90
2018-09-19T06:27:14.812Z,16.90
2018-09-19T06:29:42.899Z,17.10
2018-09-19T06:32:10.999Z,17.10
2018-09-19T06:34:39.113Z,17.20
2018-09-19T06:37:07.269Z,17.30
2018-09-19T06:39:35.333Z,17.30
2018-09-19T06:42:03.440Z,17.40
2018-09-19T06:44:31.559Z,17.40
2018-09-19T06:46:59.723Z,17.40
2018-09-19T06:49:27.766Z,17.50
2018-09-19T06:51:55.898Z,17.50
2018-09-19T06:54:23.987Z,17.70
2018-09-19T06:56:52.085Z,17.60
2018-09-19T06:59:20.193Z,17.70
2018-09-19T07:01:48.310Z,17.80
2018-09-19T07:04:16.428Z,17.90
2018-09-19T07:06:44.538Z,17.90
2018-09-19T07:09:12.636Z,18.00
2018-09-19T07:11:40.740Z,18.10
2018-09-19T07:14:08.842Z,18.40
2018-09-19T07:16:37.067Z,18.40
2018-09-19T07:19:05.433Z,18.50
2018-09-19T07:21:33.485Z,18.50
2018-09-19T07:24:01.710Z,18.60
2018-09-19T07:26:29.836Z,18.70
2018-09-19T07:28:57.962Z,18.70
2018-09-19T07:31:26.070Z,18.80
2018-09-19T07:33:54.197Z,18.90
2018-09-19T07:36:22.324Z,19.00
2018-09-19T07:38:50.617Z,19.10
2018-09-19T07:41:18.740Z,19.30
2018-09-19T07:43:46.842Z,19.50
2018-09-19T07:46:14.937Z,19.80
2018-09-19T07:48:43.039Z,20.10
2018-09-19T07:51:11.166Z,20.30
2018-09-19T07:53:39.248Z,20.60
2018-09-19T07:56:07.345Z,20.80
2018-09-19T07:58:35.462Z,21.10
2018-09-19T08:01:03.622Z,21.40
2018-09-19T08:03:31.690Z,21.70
2018-09-19T08:05:59.796Z,21.60
2018-09-19T08:08:28.009Z,21.80
2018-09-19T08:10:56.224Z,22.20
2018-09-19T08:13:24.291Z,22.50
2018-09-19T08:15:52.385Z,22.60
2018-09-19T08:18:20.464Z,22.70
2018-09-19T08:20:48.571Z,23.00
2018-09-19T08:23:16.669Z,23.20
2018-09-19T08:25:44.748Z,23.30
2018-09-19T08:28:12.858Z,23.40
2018-09-19T08:30:40.953Z,23.60
2018-09-19T08:33:09.033Z,23.60
2018-09-19T08:35:37.282Z,23.80
2018-09-19T08:38:05.391Z,24.10
2018-09-19T08:40:33.513Z,24.20
2018-09-19T08:43:01.623Z,24.30
2018-09-19T08:45:29.726Z,24.50
2018-09-19T08:47:57.799Z,24.50
2018-09-19T08:50:25.901Z,24.40
2018-09-19T08:52:53.988Z,24.30
2018-09-19T08:55:22.090Z,24.10
2018-09-19T08:57:50.171Z,24.10
2018-09-19T09:00:18.288Z,24.30
2018-09-19T09:02:46.365Z,24.60
2018-09-19T09:05:14.508Z,24.90
2018-09-19T09:07:42.569Z,25.00
2018-09-19T09:10:10.677Z,25.10
2018-09-19T09:12:39.000Z,25.30
2018-09-19T09:15:07.377Z,25.50
2018-09-19T09:17:35.674Z,25.60
2018-09-19T09:20:03.827Z,25.80
2018-09-19T09:22:31.878Z,26.00
2018-09-19T09:24:59.990Z,26.10
2018-09-19T09:27:28.170Z,26.10
2018-09-19T09:29:56.206Z,26.30
2018-09-19T09:32:24.325Z,26.20
2018-09-19T09:34:52.420Z,26.40
2018-09-19T09:37:20.523Z,26.40
2018-09-19T09:39:48.628Z,26.40
2018-09-19T09:42:16.715Z,26.50
2018-09-19T09:44:44.876Z,26.60
2018-09-19T09:47:12.987Z,26.80
2018-09-19T09:49:41.120Z,26.90
2018-09-19T09:52:09.224Z,26.80
2018-09-19T09:54:37.335Z,26.90
2018-09-19T09:57:05.629Z,26.90
2018-09-19T09:59:33.746Z,26.90
2018-09-19T10:02:01.999Z,27.00
2018-09-19T10:04:30.122Z,27.30
2018-09-19T10:06:58.210Z,27.30
2018-09-19T10:09:26.380Z,27.50
2018-09-19T10:11:54.490Z,27.60
2018-09-19T10:14:22.625Z,27.80
2018-09-19T10:16:50.718Z,27.80
2018-09-19T10:19:18.817Z,27.60
2018-09-19T10:21:46.912Z,27.70
2018-09-19T10:24:14.999Z,27.70
2018-09-19T10:26:43.089Z,27.60
2018-09-19T10:29:11.179Z,27.70
2018-09-19T10:31:39.311Z,28.00
2018-09-19T10:34:07.408Z,27.90
2018-09-19T10:36:35.500Z,27.80
2018-09-19T10:39:04.168Z,27.60
2018-09-19T10:41:32.256Z,27.20
2018-09-19T10:44:00.354Z,27.10
2018-09-19T10:46:28.419Z,27.10
2018-09-19T10:48:56.498Z,27.20
2018-09-19T10:51:24.591Z,27.20
2018-09-19T10:53:52.733Z,27.20
2018-09-19T10:56:22.086Z,27.20
2018-09-19T10:58:50.256Z,27.30
2018-09-19T11:01:18.345Z,27.20
2018-09-19T11:03:46.434Z,27.10
2018-09-19T11:06:14.542Z,27.00
2018-09-19T11:08:42.613Z,27.10
2018-09-19T11:11:10.725Z,27.20
2018-09-19T11:13:38.794Z,27.30
2018-09-19T11:16:06.897Z,27.30
2018-09-19T11:18:35.170Z,27.40
2018-09-19T11:21:03.278Z,27.40
2018-09-19T11:23:31.357Z,27.50
2018-09-19T11:25:59.435Z,27.70
2018-09-19T11:28:27.510Z,28.10
2018-09-19T11:30:55.613Z,28.30
2018-09-19T11:33:23.701Z,28.40
2018-09-19T11:35:51.802Z,28.70
2018-09-19T11:38:19.867Z,28.80
2018-09-19T11:40:47.962Z,28.90
2018-09-19T11:43:16.098Z,28.90
2018-09-19T11:45:44.136Z,28.60
2018-09-19T11:48:12.208Z,28.70
2018-09-19T11:50:40.301Z,28.90
2018-09-19T11:53:13.836Z,29.20
2018-09-19T11:55:42.377Z,29.20
2018-09-19T11:58:10.587Z,29.00
2018-09-19T12:00:38.652Z,28.90
2018-09-19T12:03:06.723Z,28.60
2018-09-19T12:05:34.818Z,28.60
2018-09-19T12:08:02.900Z,28.40
2018-09-19T12:10:30.988Z,28.10
2018-09-19T12:12:59.068Z,27.90
2018-09-19T12:15:27.161Z,27.70
2018-09-19T12:17:55.235Z,27.70
2018-09-19T12:20:23.312Z,27.80
2018-09-19T12:22:51.402Z,27.90
2018-09-19T12:25:19.482Z,27.90
2018-09-19T12:27:47.569Z,27.80
2018-09-19T12:30:15.648Z,27.90
2018-09-19T12:32:43.733Z,27.90
2018-09-19T12:35:11.817Z,27.90
2018-09-19T12:37:39.969Z,28.10
2018-09-19T12:40:08.050Z,28.10
2018-09-19T12:42:36.159Z,28.20
2018-09-19T12:45:04.276Z,28.30
2018-09-19T12:47:32.355Z,28.50
2018-09-19T12:50:00.447Z,28.70
2018-09-19T12:52:28.533Z,28.80
2018-09-19T12:54:56.630Z,28.70
2018-09-19T12:57:24.739Z,28.70
2018-09-19T12:59:52.837Z,28.60
2018-09-19T13:02:20.920Z,28.60
2018-09-19T13:04:48.996Z,28.60
2018-09-19T13:07:17.092Z,28.50
2018-09-19T13:09:45.170Z,28.40
2018-09-19T13:12:13.548Z,28.40
2018-09-19T13:14:41.720Z,28.40
2018-09-19T13:17:09.841Z,28.50
2018-09-19T13:19:37.935Z,28.40
2018-09-19T13:22:07.004Z,28.40
2018-09-19T13:24:35.154Z,28.30
2018-09-19T13:27:03.265Z,28.30
2018-09-19T13:29:31.345Z,28.20
2018-09-19T13:31:59.427Z,28.40
2018-09-19T13:34:27.510Z,28.30
2018-09-19T13:36:55.607Z,28.20
2018-09-19T13:39:23.680Z,28.30
2018-09-19T13:41:51.768Z,28.30
2018-09-19T13:44:19.831Z,28.30
2018-09-19T13:46:47.942Z,28.30
2018-09-19T13:49:26.136Z,28.30
2018-09-19T13:51:54.330Z,28.30
2018-09-19T13:54:22.399Z,28.30
2018-09-19T13:56:50.493Z,28.20
2018-09-19T13:59:18.569Z,28.30
2018-09-19T14:01:46.660Z,28.30
2018-09-19T14:04:14.793Z,28.30
2018-09-19T14:06:42.843Z,28.30
2018-09-19T14:09:10.957Z,28.40
2018-09-19T14:11:39.101Z,28.40
2018-09-19T14:14:07.158Z,28.50
2018-09-19T14:16:35.241Z,28.30
2018-09-19T14:19:03.362Z,28.40
2018-09-19T14:21:31.448Z,28.40
2018-09-19T14:23:59.628Z,28.40
2018-09-19T14:26:27.724Z,28.30
2018-09-19T14:28:55.849Z,28.30
2018-09-19T14:31:23.952Z,28.40
2018-09-19T14:33:52.040Z,28.50
2018-09-19T14:36:20.155Z,28.60
2018-09-19T14:38:48.245Z,28.60
2018-09-19T14:41:16.396Z,28.70
2018-09-19T14:43:44.458Z,28.70
2018-09-19T14:46:12.546Z,28.70
2018-09-19T14:48:40.683Z,28.60
2018-09-19T14:51:08.742Z,28.60
2018-09-19T14:53:36.831Z,28.50
2018-09-19T14:56:04.961Z,28.40
2018-09-19T14:58:33.077Z,28.40
2018-09-19T15:01:01.277Z,28.40
2018-09-19T15:03:29.358Z,28.50
2018-09-19T15:05:57.544Z,28.60
2018-09-19T15:08:25.657Z,28.50
2018-09-19T15:10:53.777Z,28.50
2018-09-19T15:13:21.884Z,28.60
2018-09-19T15:15:49.972Z,28.60
2018-09-19T15:18:18.077Z,28.50
2018-09-19T15:20:46.173Z,28.60
2018-09-19T15:23:14.358Z,28.60
2018-09-19T15:25:42.459Z,28.60
2018-09-19T15:28:10.564Z,28.60
2018-09-19T15:30:38.660Z,28.50
2018-09-19T15:33:06.771Z,28.50
2018-09-19T15:35:34.868Z,28.50
2018-09-19T15:38:02.960Z,28.50
2018-09-19T15:40:31.063Z,28.50
2018-09-19T15:42:59.155Z,28.50
2018-09-19T15:45:27.257Z,28.50
2018-09-19T15:47:55.350Z,28.40
2018-09-19T15:50:23.440Z,28.40
2018-09-19T15:52:51.541Z,28.50
2018-09-19T15:55:19.649Z,28.50
2018-09-19T15:57:47.761Z,28.40
2018-09-19T16:00:16.824Z,28.40
2018-09-19T16:02:45.161Z,28.40
2018-09-19T16:05:13.279Z,28.40
2018-09-19T16:07:41.367Z,28.40
2018-09-19T16:10:09.447Z,28.40
2018-09-19T16:12:37.544Z,28.30
2018-09-19T16:15:05.672Z,28.20
2018-09-19T16:17:33.747Z,28.20
2018-09-19T16:20:01.835Z,28.30
2018-09-19T16:22:29.917Z,28.20
2018-09-19T16:24:57.989Z,28.20
2018-09-19T16:27:26.059Z,28.10
2018-09-19T16:29:54.155Z,28.10
2018-09-19T16:32:22.246Z,28.10
2018-09-19T16:34:50.334Z,28.00
2018-09-19T16:37:18.411Z,28.00
2018-09-19T16:39:46.489Z,28.00
2018-09-19T16:42:14.602Z,27.90
2018-09-19T16:44:42.690Z,27.70
2018-09-19T16:47:10.765Z,27.60
2018-09-19T16:49:38.839Z,27.60
2018-09-19T16:52:06.932Z,27.50
2018-09-19T16:54:35.016Z,27.50
2018-09-19T16:57:03.328Z,27.50
2018-09-19T16:59:31.419Z,27.40
2018-09-19T17:01:59.502Z,27.40
2018-09-19T17:04:27.772Z,27.30
2018-09-19T17:06:55.863Z,27.30
2018-09-19T17:09:23.944Z,27.20
2018-09-19T17:11:52.030Z,27.20
2018-09-19T17:14:20.136Z,27.10
2018-09-19T17:16:48.262Z,27.00
2018-09-19T17:19:16.373Z,26.80
2018-09-19T17:21:44.463Z,26.80
2018-09-19T17:24:12.601Z,26.70
2018-09-19T17:26:40.700Z,26.70
2018-09-19T17:29:08.793Z,26.70
2018-09-19T17:31:36.844Z,26.70
2018-09-19T17:34:04.978Z,26.70
2018-09-19T17:36:33.090Z,26.60
2018-09-19T17:39:01.191Z,26.50
2018-09-19T17:41:29.329Z,26.40
2018-09-19T17:43:57.505Z,26.40
2018-09-19T17:46:25.640Z,26.30
2018-09-19T17:48:53.749Z,26.30
2018-09-19T17:51:21.964Z,26.30
2018-09-19T17:53:50.074Z,26.10
2018-09-19T17:56:18.152Z,26.10
2018-09-19T17:58:46.477Z,26.00
2018-09-19T18:01:14.590Z,25.90
2018-09-19T18:03:42.770Z,25.90
2018-09-19T18:06:10.976Z,25.80
2018-09-19T18:08:39.393Z,25.80
2018-09-19T18:11:07.508Z,25.70
2018-09-19T18:13:35.644Z,25.60
2018-09-19T18:16:03.779Z,25.50
2018-09-19T18:18:31.868Z,25.40
2018-09-19T18:21:00.049Z,25.40
2018-09-19T18:23:28.160Z,25.30
2018-09-19T18:25:56.262Z,25.30
2018-09-19T18:28:24.367Z,25.40
2018-09-19T18:30:52.485Z,25.30
2018-09-19T18:33:20.763Z,25.20
2018-09-19T18:35:49.491Z,25.10
2018-09-19T18:41:04.039Z,25.10
2018-09-19T18:43:32.149Z,25.00
2018-09-19T18:46:00.737Z,24.90
2018-09-19T18:48:30.065Z,24.70
2018-09-19T18:51:00.022Z,24.70
2018-09-19T18:53:29.267Z,24.60
2018-09-19T18:55:57.952Z,24.50
2018-09-19T18:58:26.268Z,24.50
2018-09-19T19:00:54.435Z,24.50
2018-09-19T19:03:22.600Z,24.30
2018-09-19T19:05:50.894Z,24.30
2018-09-19T19:08:19.240Z,24.30
2018-09-19T19:10:47.798Z,24.20
2018-09-19T19:13:16.452Z,24.20
2018-09-19T19:15:44.618Z,24.10
2018-09-19T19:18:12.704Z,24.00
2018-09-19T19:20:41.002Z,24.00
2018-09-19T19:23:09.684Z,23.90
2018-09-19T19:25:38.585Z,23.80
2018-09-19T19:28:07.604Z,23.80
2018-09-19T19:30:35.803Z,23.80
2018-09-19T19:33:03.782Z,23.80
2018-09-19T19:35:32.352Z,23.80
2018-09-19T19:38:01.044Z,23.70
2018-09-19T19:40:29.713Z,23.70
2018-09-19T19:42:58.218Z,23.70
2018-09-19T19:45:26.961Z,23.60
2018-09-19T19:47:55.155Z,23.60
2018-09-19T19:50:23.331Z,23.50
2018-09-19T19:52:51.710Z,23.40
2018-09-19T19:55:20.228Z,23.30
2018-09-19T19:57:48.918Z,23.20
2018-09-19T20:00:17.054Z,23.00
2018-09-19T20:02:45.228Z,22.80
2018-09-19T20:05:13.363Z,22.70
2018-09-19T20:07:41.614Z,22.60
2018-09-19T20:10:11.063Z,22.50
2018-09-19T20:12:39.236Z,22.40
2018-09-19T20:15:07.780Z,22.30
2018-09-19T20:17:36.264Z,22.30
2018-09-19T20:20:04.508Z,22.30
2018-09-19T20:22:32.600Z,22.20
2018-09-19T20:25:01.013Z,22.10
2018-09-19T20:27:29.725Z,22.00
2018-09-19T20:30:00.797Z,21.90
2018-09-19T20:32:28.880Z,21.90
2018-09-19T20:34:56.988Z,21.90
2018-09-19T20:37:25.325Z,21.80
2018-09-19T20:39:53.425Z,21.70
2018-09-19T20:42:21.521Z,21.60
2018-09-19T20:44:50.184Z,21.60
2018-09-19T20:47:19.887Z,21.50
2018-09-19T20:49:48.218Z,21.30
2018-09-19T20:54:50.854Z,21.10
2018-09-19T20:57:19.088Z,21.00
2018-09-19T20:59:47.183Z,20.90
2018-09-19T21:02:15.296Z,20.80
2018-09-19T21:04:43.419Z,20.80
2018-09-19T21:07:11.499Z,20.70
2018-09-19T21:09:39.581Z,20.60
2018-09-19T21:12:07.691Z,20.50
2018-09-19T21:14:35.758Z,20.40
2018-09-19T21:17:03.844Z,20.40
2018-09-19T21:19:32.110Z,20.30
2018-09-19T21:22:07.189Z,20.20
2018-09-19T21:24:35.174Z,20.20
2018-09-19T21:27:03.260Z,20.00
2018-09-19T21:29:31.354Z,20.10
2018-09-19T21:31:59.444Z,19.90
2018-09-19T21:34:27.553Z,19.90
2018-09-19T21:36:55.634Z,19.80
2018-09-19T21:39:23.730Z,19.70
2018-09-19T21:41:51.849Z,19.60
2018-09-19T21:44:19.924Z,19.50
2018-09-19T21:46:48.011Z,19.60
2018-09-19T21:49:16.076Z,19.60
2018-09-19T21:51:44.159Z,19.60
2018-09-19T21:54:12.256Z,19.60
2018-09-19T21:56:40.344Z,19.50
2018-09-19T21:59:08.438Z,19.40
2018-09-19T22:01:40.497Z,19.30
2018-09-19T22:04:08.603Z,19.30
2018-09-19T22:06:36.892Z,19.20
2018-09-19T22:09:08.427Z,19.20
2018-09-19T22:11:36.620Z,19.20
2018-09-19T22:14:04.858Z,19.20
2018-09-19T22:16:32.965Z,19.10
2018-09-19T22:19:01.057Z,19.00
2018-09-19T22:21:29.136Z,19.00
2018-09-19T22:23:57.218Z,19.00
2018-09-19T22:26:25.306Z,18.90
2018-09-19T22:28:53.387Z,18.90
2018-09-19T22:31:21.469Z,18.90
2018-09-19T22:33:49.553Z,18.90
2018-09-19T22:36:17.628Z,18.80
2018-09-19T22:38:45.722Z,18.70
2018-09-19T22:41:13.822Z,18.70
2018-09-19T22:43:41.921Z,18.60
2018-09-19T22:46:10.014Z,18.60
2018-09-19T22:48:38.096Z,18.60
2018-09-19T22:51:06.204Z,18.60
2018-09-19T22:53:34.311Z,18.50
2018-09-19T22:56:02.413Z,18.50
2018-09-19T22:58:30.709Z,18.50
2018-09-19T23:00:58.801Z,18.40
2018-09-19T23:03:26.903Z,18.40
2018-09-19T23:05:55.017Z,18.40
2018-09-19T23:08:23.104Z,18.40
2018-09-19T23:10:51.369Z,18.40
2018-09-19T23:13:19.503Z,18.30
2018-09-19T23:15:47.602Z,18.30
2018-09-19T23:18:15.704Z,18.30
2018-09-19T23:20:43.797Z,18.30
2018-09-19T23:23:11.953Z,18.20
2018-09-19T23:25:40.037Z,18.10
2018-09-19T23:28:08.183Z,18.00
2018-09-19T23:30:36.259Z,18.00
2018-09-19T23:33:04.347Z,17.90
2018-09-19T23:35:32.439Z,17.90
2018-09-19T23:38:00.536Z,17.90
2018-09-19T23:40:28.736Z,17.90
2018-09-19T23:42:56.853Z,17.90
2018-09-19T23:45:25.084Z,17.90
2018-09-19T23:47:53.184Z,17.80
2018-09-19T23:50:21.272Z,17.80
2018-09-19T23:52:49.365Z,17.70
2018-09-19T23:55:17.453Z,17.70
2018-09-19T23:57:45.595Z,17.60
